Time;durP1;ratioP1;P1;durP2;ratioP2;P2;SDS_P1;SDS_P2;PMS_P1;PMS_P2;Temp;Humidity;BMP_temperature;BMP_pressure;BME280_temperature;BME280_humidity;BME280_pressure;Samples;Min_cycle;Max_cycle;Signal;HPM_P1;HPM_P2
2023/11/29 00:00:24;;;;;;;;;;;18.10;48.70;;;;;;1558470;75;686;-60
2023/11/29 00:02:25;;;;;;;;;;;18.10;48.70;;;;;;1542153;75;1135;-62
2023/11/29 00:04:27;;;;;;;;;;;18.00;48.60;;;;;;1558105;75;757;-61
2023/11/29 00:06:29;;;;;;;;;;;18.10;48.70;;;;;;1561006;75;771;-61
2023/11/29 00:08:31;;;;;;;;;;;18.10;48.80;;;;;;1532494;76;746;-61
2023/11/29 00:10:33;;;;;;;;;;;18.10;48.80;;;;;;1556766;75;1935;-61
2023/11/29 00:12:35;;;;;;;;;;;18.00;48.60;;;;;;1554560;75;1606;-61
2023/11/29 00:14:37;;;;;;;;;;;18.00;48.60;;;;;;1563182;75;711;-62
2023/11/29 00:16:38;;;;;;;;;;;18.10;48.70;;;;;;1532865;76;679;-61
2023/11/29 00:18:41;;;;;;;;;;;18.00;48.60;;;;;;1568795;75;755;-61
2023/11/29 00:20:44;;;;;;;;;;;18.10;48.70;;;;;;1550087;75;693;-61
2023/11/29 00:22:46;;;;;;;;;;;18.00;48.60;;;;;;1547604;74;1140;-61
2023/11/29 00:24:48;;;;;;;;;;;18.00;48.60;;;;;;1549714;75;755;-61
2023/11/29 00:26:50;;;;;;;;;;;18.00;48.60;;;;;;1554630;75;1553;-61
2023/11/29 00:28:52;;;;;;;;;;;18.10;48.70;;;;;;1556470;75;664;-61
2023/11/29 00:30:53;;;;;;;;;;;18.00;48.60;;;;;;1554992;75;1948;-61
2023/11/29 00:32:56;;;;;;;;;;;18.10;48.70;;;;;;1544405;76;1182;-61
2023/11/29 00:34:58;;;;;;;;;;;18.00;48.60;;;;;;1560598;75;723;-60
2023/11/29 00:37:01;;;;;;;;;;;18.10;48.80;;;;;;1559946;75;786;-61
2023/11/29 00:39:03;;;;;;;;;;;18.00;48.60;;;;;;1555391;75;760;-62
2023/11/29 00:41:05;;;;;;;;;;;18.10;48.80;;;;;;1554332;75;1384;-60
2023/11/29 00:43:07;;;;;;;;;;;18.00;48.70;;;;;;1551912;75;1130;-61
2023/11/29 00:45:09;;;;;;;;;;;18.10;48.80;;;;;;1545721;76;703;-60
2023/11/29 00:47:11;;;;;;;;;;;18.00;48.70;;;;;;1562257;75;728;-60
2023/11/29 00:49:13;;;;;;;;;;;18.10;48.80;;;;;;1558402;75;1927;-61
2023/11/29 00:51:15;;;;;;;;;;;18.10;48.80;;;;;;1559769;75;781;-61
2023/11/29 00:53:17;;;;;;;;;;;18.10;48.80;;;;;;1549278;75;1142;-61
2023/11/29 00:55:19;;;;;;;;;;;18.00;48.70;;;;;;1552292;75;1356;-62
2023/11/29 00:57:21;;;;;;;;;;;18.00;48.60;;;;;;1556871;75;779;-61
2023/11/29 00:59:23;;;;;;;;;;;18.00;48.70;;;;;;1553105;75;683;-62
2023/11/29 01:01:24;;;;;;;;;;;18.10;48.80;;;;;;1558449;75;669;-61
2023/11/29 01:03:26;;;;;;;;;;;18.10;48.80;;;;;;1551200;74;1142;-61
2023/11/29 01:05:28;;;;;;;;;;;18.00;48.70;;;;;;1563600;75;742;-62
2023/11/29 01:07:30;;;;;;;;;;;17.90;48.70;;;;;;1528943;76;731;-62
2023/11/29 01:09:32;;;;;;;;;;;18.00;48.70;;;;;;1551005;75;1938;-61
2023/11/29 01:11:34;;;;;;;;;;;18.00;48.70;;;;;;1556726;75;737;-61
2023/11/29 01:13:36;;;;;;;;;;;18.00;48.60;;;;;;1557788;75;1114;-62
2023/11/29 01:15:38;;;;;;;;;;;18.00;48.60;;;;;;1540151;75;726;-61
2023/11/29 01:17:40;;;;;;;;;;;18.00;48.70;;;;;;1539526;76;733;-61
2023/11/29 01:19:42;;;;;;;;;;;18.00;48.70;;;;;;1546230;75;867;-62
2023/11/29 01:21:44;;;;;;;;;;;18.10;48.90;;;;;;1554690;75;758;-61
2023/11/29 01:23:45;;;;;;;;;;;18.00;48.70;;;;;;1554787;75;1569;-61
2023/11/29 01:25:47;;;;;;;;;;;18.00;48.70;;;;;;1572214;75;671;-61
2023/11/29 01:27:50;;;;;;;;;;;18.00;48.70;;;;;;1535927;76;672;-62
2023/11/29 01:29:52;;;;;;;;;;;18.00;48.80;;;;;;1554857;75;1925;-61
2023/11/29 01:31:54;;;;;;;;;;;18.10;48.90;;;;;;1532936;76;774;-61
2023/11/29 01:33:57;;;;;;;;;;;18.00;48.70;;;;;;1551544;75;1195;-60
2023/11/29 01:36:01;;;;;;;;;;;18.00;48.80;;;;;;1550163;75;707;-61
2023/11/29 01:38:02;;;;;;;;;;;18.00;48.80;;;;;;1543563;75;1690;-62
2023/11/29 01:40:06;;;;;;;;;;;18.00;48.80;;;;;;1529185;76;713;-61
2023/11/29 01:42:08;;;;;;;;;;;18.10;48.90;;;;;;1551985;75;1140;-60
2023/11/29 01:44:11;;;;;;;;;;;18.00;48.70;;;;;;1529438;76;709;-61
2023/11/29 01:46:13;;;;;;;;;;;18.00;48.70;;;;;;1530975;76;739;-62
2023/11/29 01:48:15;;;;;;;;;;;18.00;48.80;;;;;;1499072;78;748;-60
2023/11/29 01:50:18;;;;;;;;;;;18.10;48.90;;;;;;1500943;77;1912;-61
2023/11/29 01:52:19;;;;;;;;;;;18.00;48.70;;;;;;1535564;76;1551;-61
2023/11/29 01:54:21;;;;;;;;;;;18.00;48.80;;;;;;1562632;75;663;-60
2023/11/29 01:56:23;;;;;;;;;;;18.00;48.80;;;;;;1563911;75;729;-62
2023/11/29 01:58:25;;;;;;;;;;;18.00;48.80;;;;;;1557005;75;719;-61
2023/11/29 02:00:27;;;;;;;;;;;18.00;48.80;;;;;;1531630;76;729;-61
2023/11/29 02:02:29;;;;;;;;;;;18.00;48.80;;;;;;1530474;76;1134;-61
2023/11/29 02:04:31;;;;;;;;;;;17.90;48.80;;;;;;1517740;76;782;-61
2023/11/29 02:06:33;;;;;;;;;;;18.00;48.80;;;;;;1538565;76;1636;-61
2023/11/29 02:08:35;;;;;;;;;;;18.00;48.80;;;;;;1527250;76;778;-60
2023/11/29 02:10:37;;;;;;;;;;;18.00;48.80;;;;;;1545671;76;1950;-61
2023/11/29 02:12:39;;;;;;;;;;;17.90;48.80;;;;;;1533389;76;1162;-61
2023/11/29 02:14:43;;;;;;;;;;;18.00;48.80;;;;;;1533434;76;741;-60
2023/11/29 02:16:45;;;;;;;;;;;18.00;48.70;;;;;;1529860;76;747;-61
2023/11/29 02:18:47;;;;;;;;;;;17.90;48.80;;;;;;1548295;76;824;-61
2023/11/29 02:20:49;;;;;;;;;;;18.00;48.80;;;;;;1533995;76;1359;-62
2023/11/29 02:22:55;;;;;;;;;;;18.00;48.80;;;;;;1531863;76;1190;-60
2023/11/29 02:24:57;;;;;;;;;;;18.00;48.80;;;;;;1504736;76;1169;-61
2023/11/29 02:26:59;;;;;;;;;;;18.00;48.80;;;;;;1533931;76;680;-62
2023/11/29 02:29:01;;;;;;;;;;;17.90;48.80;;;;;;1530683;76;768;-61
2023/11/29 02:31:03;;;;;;;;;;;18.00;48.80;;;;;;1556775;75;1930;-60
2023/11/29 02:33:05;;;;;;;;;;;17.90;48.80;;;;;;1561033;75;1572;-61
2023/11/29 02:35:07;;;;;;;;;;;18.00;48.80;;;;;;1556713;75;707;-59
2023/11/29 02:37:09;;;;;;;;;;;18.00;48.90;;;;;;1562854;75;733;-59
2023/11/29 02:39:11;;;;;;;;;;;17.90;48.80;;;;;;1556333;75;644;-59
2023/11/29 02:41:12;;;;;;;;;;;17.90;48.80;;;;;;1564580;75;733;-60
2023/11/29 02:43:14;;;;;;;;;;;18.00;48.90;;;;;;1560921;75;1158;-61
2023/11/29 02:45:16;;;;;;;;;;;18.00;48.80;;;;;;1570916;75;722;-60
2023/11/29 02:47:18;;;;;;;;;;;18.00;48.80;;;;;;1533106;76;1484;-59
2023/11/29 02:49:23;;;;;;;;;;;18.00;48.80;;;;;;1559291;75;668;-58
2023/11/29 02:51:24;;;;;;;;;;;17.90;48.80;;;;;;1557801;75;1927;-58
2023/11/29 02:53:26;;;;;;;;;;;18.00;48.90;;;;;;1558551;75;1120;-59
2023/11/29 02:55:28;;;;;;;;;;;17.90;48.90;;;;;;1532162;76;657;-59
2023/11/29 02:57:31;;;;;;;;;;;17.90;48.90;;;;;;1569215;75;806;-58
2023/11/29 02:59:32;;;;;;;;;;;17.90;48.90;;;;;;1532435;76;757;-59
2023/11/29 03:01:34;;;;;;;;;;;17.90;48.90;;;;;;1551972;75;1343;-58
2023/11/29 03:03:36;;;;;;;;;;;18.00;48.80;;;;;;1551448;74;1150;-60
2023/11/29 03:05:38;;;;;;;;;;;17.90;48.80;;;;;;1533435;76;804;-59
2023/11/29 03:07:40;;;;;;;;;;;17.90;48.90;;;;;;1558975;75;710;-61
2023/11/29 03:09:42;;;;;;;;;;;17.90;48.90;;;;;;1535678;76;703;-61
2023/11/29 03:11:44;;;;;;;;;;;17.90;48.80;;;;;;1553077;75;1925;-61
2023/11/29 03:13:46;;;;;;;;;;;17.90;48.90;;;;;;1559869;74;1149;-61
2023/11/29 03:15:48;;;;;;;;;;;17.90;48.90;;;;;;1558052;75;1426;-62
2023/11/29 03:17:49;;;;;;;;;;;17.90;48.90;;;;;;1562633;75;921;-62
2023/11/29 03:19:51;;;;;;;;;;;17.90;48.90;;;;;;1536530;76;1074;-61
2023/11/29 03:21:53;;;;;;;;;;;17.90;48.80;;;;;;1557125;75;707;-60
2023/11/29 03:23:55;;;;;;;;;;;18.00;48.90;;;;;;1550225;75;1162;-61
2023/11/29 03:25:57;;;;;;;;;;;17.90;48.90;;;;;;1555237;75;729;-62
2023/11/29 03:27:59;;;;;;;;;;;17.90;48.90;;;;;;1535578;76;1150;-62
2023/11/29 03:30:01;;;;;;;;;;;17.90;48.90;;;;;;1539802;75;1924;-61
2023/11/29 03:32:03;;;;;;;;;;;17.90;48.80;;;;;;1550150;75;616;-59
2023/11/29 03:34:05;;;;;;;;;;;18.00;48.90;;;;;;1528156;76;1160;-59
2023/11/29 03:36:07;;;;;;;;;;;17.90;48.90;;;;;;1563172;75;813;-59
2023/11/29 03:38:09;;;;;;;;;;;18.00;48.90;;;;;;1561332;75;740;-61
2023/11/29 03:40:11;;;;;;;;;;;17.90;48.90;;;;;;1562140;75;701;-61
2023/11/29 03:42:13;;;;;;;;;;;18.00;48.90;;;;;;1546272;75;1132;-61
2023/11/29 03:44:15;;;;;;;;;;;17.90;48.80;;;;;;1532833;76;1465;-61
2023/11/29 03:46:17;;;;;;;;;;;17.90;48.90;;;;;;1556867;75;744;-61
2023/11/29 03:48:19;;;;;;;;;;;17.90;48.90;;;;;;1562686;75;763;-60
2023/11/29 03:50:21;;;;;;;;;;;17.90;48.80;;;;;;1557698;75;1931;-61
2023/11/29 03:52:24;;;;;;;;;;;17.90;48.80;;;;;;1551647;75;1204;-63
2023/11/29 03:54:26;;;;;;;;;;;18.00;48.80;;;;;;1530441;76;744;-60
2023/11/29 03:56:28;;;;;;;;;;;18.00;48.80;;;;;;1551855;75;1101;-61
2023/11/29 03:58:30;;;;;;;;;;;17.90;48.80;;;;;;1552962;75;1524;-60
2023/11/29 04:00:32;;;;;;;;;;;17.90;48.80;;;;;;1551522;75;632;-61
2023/11/29 04:02:34;;;;;;;;;;;18.00;48.80;;;;;;1557443;75;1141;-60
2023/11/29 04:04:36;;;;;;;;;;;17.90;48.80;;;;;;1564778;75;788;-61
2023/11/29 04:06:38;;;;;;;;;;;18.00;48.80;;;;;;1533954;76;780;-63
2023/11/29 04:08:40;;;;;;;;;;;18.00;48.80;;;;;;1561900;75;656;-61
2023/11/29 04:10:42;;;;;;;;;;;18.00;48.80;;;;;;1535621;76;1939;-61
2023/11/29 04:12:43;;;;;;;;;;;18.00;48.80;;;;;;1558784;74;1319;-62
2023/11/29 04:14:45;;;;;;;;;;;18.10;48.90;;;;;;1532136;76;812;-61
2023/11/29 04:16:47;;;;;;;;;;;18.00;48.80;;;;;;1551778;75;780;-61
2023/11/29 04:18:50;;;;;;;;;;;18.00;48.80;;;;;;1556035;75;683;-61
2023/11/29 04:20:52;;;;;;;;;;;18.00;48.70;;;;;;1552545;75;725;-61
2023/11/29 04:22:54;;;;;;;;;;;18.00;48.70;;;;;;1538621;76;1302;-61
2023/11/29 04:24:55;;;;;;;;;;;17.90;48.70;;;;;;1551771;75;753;-61
2023/11/29 04:26:57;;;;;;;;;;;18.00;48.70;;;;;;1562827;75;1565;-61
2023/11/29 04:28:59;;;;;;;;;;;18.00;48.60;;;;;;1552497;75;681;-61
2023/11/29 04:31:01;;;;;;;;;;;18.10;48.80;;;;;;1542397;76;1927;-62
2023/11/29 04:33:04;;;;;;;;;;;18.10;48.80;;;;;;1548383;75;1128;-61
2023/11/29 04:35:07;;;;;;;;;;;18.00;48.60;;;;;;1551735;75;808;-61
2023/11/29 04:37:09;;;;;;;;;;;18.00;48.60;;;;;;1556033;75;754;-61
2023/11/29 04:39:12;;;;;;;;;;;18.00;48.60;;;;;;1536982;76;743;-61
2023/11/29 04:41:14;;;;;;;;;;;18.00;48.60;;;;;;1551489;75;2002;-62
2023/11/29 04:43:16;;;;;;;;;;;18.10;48.80;;;;;;1533870;76;1172;-61
2023/11/29 04:45:18;;;;;;;;;;;18.00;48.60;;;;;;1539871;76;704;-61
2023/11/29 04:47:20;;;;;;;;;;;18.00;48.60;;;;;;1548896;75;744;-61
2023/11/29 04:49:22;;;;;;;;;;;18.00;48.70;;;;;;1567872;75;756;-61
2023/11/29 04:51:24;;;;;;;;;;;18.10;48.80;;;;;;1554544;75;1919;-61
2023/11/29 04:53:25;;;;;;;;;;;18.00;48.60;;;;;;1538456;75;1155;-61
2023/11/29 04:55:27;;;;;;;;;;;18.00;48.60;;;;;;1553619;75;1612;-62
2023/11/29 04:57:29;;;;;;;;;;;18.00;48.60;;;;;;1557457;75;688;-62
2023/11/29 04:59:33;;;;;;;;;;;18.00;48.60;;;;;;1539230;76;677;-61
2023/11/29 05:01:35;;;;;;;;;;;18.00;48.60;;;;;;1557422;75;704;-63
2023/11/29 05:03:40;;;;;;;;;;;18.00;48.60;;;;;;1532293;76;1134;-63
2023/11/29 05:05:42;;;;;;;;;;;17.90;48.60;;;;;;1565907;75;726;-61
2023/11/29 05:07:44;;;;;;;;;;;18.00;48.60;;;;;;1573636;75;1321;-61
2023/11/29 05:09:46;;;;;;;;;;;18.00;48.60;;;;;;1567149;75;769;-62
2023/11/29 05:11:48;;;;;;;;;;;18.00;48.60;;;;;;1566149;75;1924;-62
2023/11/29 05:13:49;;;;;;;;;;;18.00;48.60;;;;;;1531205;76;1129;-62
2023/11/29 05:15:51;;;;;;;;;;;18.00;48.60;;;;;;1547521;75;726;-61
2023/11/29 05:17:53;;;;;;;;;;;18.00;48.60;;;;;;1558805;75;725;-61
2023/11/29 05:19:55;;;;;;;;;;;18.00;48.60;;;;;;1560136;75;710;-62
2023/11/29 05:21:57;;;;;;;;;;;18.00;48.60;;;;;;1537098;76;1519;-63
2023/11/29 05:23:59;;;;;;;;;;;18.00;48.60;;;;;;1530948;76;1118;-61
2023/11/29 05:26:01;;;;;;;;;;;18.00;48.50;;;;;;1568484;75;686;-62
2023/11/29 05:28:03;;;;;;;;;;;18.00;48.60;;;;;;1550027;75;633;-62
2023/11/29 05:30:05;;;;;;;;;;;18.00;48.50;;;;;;1556400;75;766;-62
2023/11/29 05:32:07;;;;;;;;;;;18.00;48.60;;;;;;1554063;75;1926;-61
2023/11/29 05:34:09;;;;;;;;;;;18.00;48.60;;;;;;1533404;76;811;-61
2023/11/29 05:36:11;;;;;;;;;;;18.00;48.60;;;;;;1554978;75;1317;-61
2023/11/29 05:38:13;;;;;;;;;;;18.00;48.60;;;;;;1555494;75;705;-61
2023/11/29 05:40:15;;;;;;;;;;;18.00;48.60;;;;;;1553439;75;735;-62
2023/11/29 05:42:17;;;;;;;;;;;18.00;48.50;;;;;;1532425;76;1122;-62
2023/11/29 05:44:18;;;;;;;;;;;18.10;48.60;;;;;;1551742;75;758;-60
2023/11/29 05:46:20;;;;;;;;;;;18.00;48.60;;;;;;1561410;75;691;-62
2023/11/29 05:48:22;;;;;;;;;;;18.00;48.50;;;;;;1554361;75;732;-59
2023/11/29 05:50:24;;;;;;;;;;;18.00;48.50;;;;;;1551435;75;1320;-59
2023/11/29 05:52:27;;;;;;;;;;;18.00;48.60;;;;;;1553411;75;1939;-59
2023/11/29 05:54:28;;;;;;;;;;;18.00;48.60;;;;;;1557320;75;740;-59
2023/11/29 05:56:30;;;;;;;;;;;18.00;48.60;;;;;;1567958;75;799;-59
2023/11/29 05:58:33;;;;;;;;;;;17.90;48.60;;;;;;1566730;75;735;-59
2023/11/29 06:00:36;;;;;;;;;;;17.90;48.60;;;;;;1552841;75;686;-59
2023/11/29 06:02:39;;;;;;;;;;;18.00;48.60;;;;;;1559951;75;1139;-59
2023/11/29 06:04:41;;;;;;;;;;;18.00;48.60;;;;;;1550931;75;1639;-59
2023/11/29 06:06:43;;;;;;;;;;;18.00;48.50;;;;;;1551932;75;722;-60
2023/11/29 06:08:45;;;;;;;;;;;18.00;48.60;;;;;;1551271;75;746;-60
2023/11/29 06:10:47;;;;;;;;;;;17.90;48.60;;;;;;1558195;75;691;-58
2023/11/29 06:12:49;;;;;;;;;;;18.00;48.60;;;;;;1549629;75;1941;-59
2023/11/29 06:14:50;;;;;;;;;;;18.00;48.60;;;;;;1549571;75;723;-59
2023/11/29 06:16:53;;;;;;;;;;;17.90;48.60;;;;;;1544222;76;606;-59
2023/11/29 06:18:55;;;;;;;;;;;18.00;48.50;;;;;;1555836;75;1440;-61
2023/11/29 06:20:57;;;;;;;;;;;17.90;48.60;;;;;;1555177;75;622;-59
2023/11/29 06:22:58;;;;;;;;;;;18.00;48.60;;;;;;1549097;75;1133;-59
2023/11/29 06:25:00;;;;;;;;;;;17.90;48.60;;;;;;1542033;76;746;-59
2023/11/29 06:27:02;;;;;;;;;;;18.00;48.50;;;;;;1560995;75;709;-59
2023/11/29 06:29:09;;;;;;;;;;;17.90;48.60;;;;;;1536791;76;764;-60
2023/11/29 06:31:11;;;;;;;;;;;17.90;48.60;;;;;;1552584;75;1917;-58
2023/11/29 06:33:13;;;;;;;;;;;17.90;48.50;;;;;;1557490;75;1356;-58
2023/11/29 06:35:16;;;;;;;;;;;17.90;48.50;;;;;;1559004;75;836;-59
2023/11/29 06:37:18;;;;;;;;;;;17.90;48.60;;;;;;1551247;75;753;-60
2023/11/29 06:39:21;;;;;;;;;;;17.90;48.50;;;;;;1553782;75;788;-59
2023/11/29 06:41:22;;;;;;;;;;;18.00;48.60;;;;;;1558944;75;732;-58
2023/11/29 06:43:25;;;;;;;;;;;18.00;48.60;;;;;;1558306;75;1157;-59
2023/11/29 06:45:27;;;;;;;;;;;17.90;48.60;;;;;;1542145;76;741;-60
2023/11/29 06:47:29;;;;;;;;;;;17.90;48.60;;;;;;1552148;75;1311;-58
2023/11/29 06:49:30;;;;;;;;;;;17.90;48.60;;;;;;1554701;75;573;-59
2023/11/29 06:51:33;;;;;;;;;;;17.90;48.60;;;;;;1538711;76;1906;-60
2023/11/29 06:53:37;;;;;;;;;;;17.90;48.60;;;;;;1551179;75;1138;-58
2023/11/29 06:55:38;;;;;;;;;;;17.90;48.60;;;;;;1558833;75;1423;-60
2023/11/29 06:57:40;;;;;;;;;;;17.90;48.60;;;;;;1554279;75;789;-60
2023/11/29 06:59:42;;;;;;;;;;;17.90;48.60;;;;;;1533958;76;731;-59
2023/11/29 07:01:44;;;;;;;;;;;17.90;48.60;;;;;;1540797;76;1533;-60
2023/11/29 07:03:46;;;;;;;;;;;17.90;48.60;;;;;;1565473;74;1091;-60
2023/11/29 07:05:47;;;;;;;;;;;17.90;48.60;;;;;;1554687;75;716;-59
2023/11/29 07:07:51;;;;;;;;;;;17.90;48.60;;;;;;1530923;76;686;-59
2023/11/29 07:09:53;;;;;;;;;;;17.90;48.60;;;;;;1559443;75;651;-59
2023/11/29 07:11:55;;;;;;;;;;;18.00;48.60;;;;;;1543507;75;1959;-60
2023/11/29 07:13:57;;;;;;;;;;;17.90;48.60;;;;;;1551699;75;1105;-59
2023/11/29 07:15:59;;;;;;;;;;;17.90;48.60;;;;;;1556171;75;1678;-59
2023/11/29 07:18:01;;;;;;;;;;;17.90;48.70;;;;;;1531799;76;781;-60
2023/11/29 07:20:07;;;;;;;;;;;18.00;48.60;;;;;;1553597;75;878;-58
2023/11/29 07:22:06;;;;;;;;;;;18.00;48.60;;;;;;1551785;75;1655;-60
2023/11/29 07:24:08;;;;;;;;;;;18.00;48.60;;;;;;1549961;75;733;-58
2023/11/29 07:26:10;;;;;;;;;;;17.90;48.60;;;;;;1553470;75;722;-59
2023/11/29 07:28:12;;;;;;;;;;;18.00;48.60;;;;;;1554854;75;748;-58
2023/11/29 07:30:14;;;;;;;;;;;17.90;48.60;;;;;;1551334;75;1658;-61
2023/11/29 07:32:17;;;;;;;;;;;18.00;48.60;;;;;;1552052;75;1939;-60
2023/11/29 07:34:19;;;;;;;;;;;18.00;48.50;;;;;;1553513;75;738;-61
2023/11/29 07:36:20;;;;;;;;;;;18.00;48.50;;;;;;1532171;76;715;-60
2023/11/29 07:38:23;;;;;;;;;;;18.00;48.50;;;;;;1561149;75;709;-59
2023/11/29 07:40:25;;;;;;;;;;;18.00;48.60;;;;;;1554717;75;597;-59
2023/11/29 07:42:27;;;;;;;;;;;18.00;48.50;;;;;;1560581;74;1446;-61
2023/11/29 07:44:29;;;;;;;;;;;18.00;48.40;;;;;;1554285;75;749;-59
2023/11/29 07:46:31;;;;;;;;;;;18.00;48.50;;;;;;1556880;75;591;-59
2023/11/29 07:48:33;;;;;;;;;;;18.00;48.50;;;;;;1533709;76;743;-59
2023/11/29 07:50:35;;;;;;;;;;;18.00;48.50;;;;;;1566535;75;672;-59
2023/11/29 07:52:37;;;;;;;;;;;18.00;48.50;;;;;;1532980;76;1912;-59
2023/11/29 07:54:39;;;;;;;;;;;18.00;48.50;;;;;;1558288;75;823;-59
2023/11/29 07:56:42;;;;;;;;;;;18.00;48.60;;;;;;1560541;75;1508;-59
2023/11/29 07:58:44;;;;;;;;;;;18.00;48.50;;;;;;1555732;75;737;-61
2023/11/29 08:00:46;;;;;;;;;;;18.00;48.50;;;;;;1560999;75;684;-59
2023/11/29 08:02:48;;;;;;;;;;;18.00;48.50;;;;;;1532977;76;1140;-61
2023/11/29 08:04:49;;;;;;;;;;;18.00;48.50;;;;;;1554318;75;683;-59
2023/11/29 08:06:51;;;;;;;;;;;18.00;48.60;;;;;;1559662;75;791;-59
2023/11/29 08:08:53;;;;;;;;;;;18.00;48.50;;;;;;1566257;75;692;-59
2023/11/29 08:10:55;;;;;;;;;;;18.00;48.60;;;;;;1535681;76;1580;-60
2023/11/29 08:12:58;;;;;;;;;;;18.00;48.50;;;;;;1555931;75;1915;-61
2023/11/29 08:15:00;;;;;;;;;;;18.00;48.50;;;;;;1548052;75;686;-61
2023/11/29 08:17:01;;;;;;;;;;;18.00;48.50;;;;;;1556749;75;751;-62
2023/11/29 08:19:03;;;;;;;;;;;18.00;48.40;;;;;;1565385;75;787;-62
2023/11/29 08:21:05;;;;;;;;;;;18.00;48.40;;;;;;1563200;75;666;-61
2023/11/29 08:23:07;;;;;;;;;;;18.00;48.30;;;;;;1534542;76;1105;-62
2023/11/29 08:25:09;;;;;;;;;;;18.00;48.40;;;;;;1553727;75;1344;-61
2023/11/29 08:27:11;;;;;;;;;;;18.00;48.40;;;;;;1533167;76;724;-61
2023/11/29 08:29:13;;;;;;;;;;;18.00;48.30;;;;;;1544709;75;735;-60
2023/11/29 08:31:16;;;;;;;;;;;18.00;48.30;;;;;;1529535;76;663;-60
2023/11/29 08:33:18;;;;;;;;;;;18.00;48.30;;;;;;1561659;75;1878;-60
2023/11/29 08:35:20;;;;;;;;;;;18.00;48.30;;;;;;1539096;76;752;-59
2023/11/29 08:37:22;;;;;;;;;;;18.00;48.30;;;;;;1541168;76;796;-59
2023/11/29 08:39:24;;;;;;;;;;;18.00;48.20;;;;;;1531903;76;1523;-60
2023/11/29 08:41:25;;;;;;;;;;;18.00;48.20;;;;;;1541197;76;828;-60
2023/11/29 08:43:27;;;;;;;;;;;18.10;48.40;;;;;;1539422;76;1122;-59
2023/11/29 08:45:29;;;;;;;;;;;18.00;48.20;;;;;;1523434;76;772;-60
2023/11/29 08:47:32;;;;;;;;;;;18.00;48.20;;;;;;1558499;75;798;-60
2023/11/29 08:49:34;;;;;;;;;;;18.00;48.20;;;;;;1538686;76;799;-57
2023/11/29 08:51:36;;;;;;;;;;;18.00;48.20;;;;;;1556481;75;762;-59
2023/11/29 08:53:38;;;;;;;;;;;18.00;48.20;;;;;;1555137;74;1928;-59
2023/11/29 08:55:46;;;;;;;;;;;18.00;48.20;;;;;;1556204;75;779;-58
2023/11/29 08:57:45;;;;;;;;;;;18.00;48.30;;;;;;1557986;75;1539;-60
2023/11/29 08:59:47;;;;;;;;;;;18.00;48.20;;;;;;1535644;76;716;-59
2023/11/29 09:01:49;;;;;;;;;;;18.00;48.20;;;;;;1554766;75;765;-58
2023/11/29 09:03:51;;;;;;;;;;;18.00;48.20;;;;;;1533738;76;1117;-60
2023/11/29 09:05:53;;;;;;;;;;;18.00;48.20;;;;;;1557598;75;719;-60
2023/11/29 09:07:55;;;;;;;;;;;18.00;48.20;;;;;;1552858;75;1518;-59
2023/11/29 09:09:58;;;;;;;;;;;18.00;48.10;;;;;;1565269;75;792;-58
2023/11/29 09:12:00;;;;;;;;;;;18.00;48.20;;;;;;1535950;76;745;-59
2023/11/29 09:14:02;;;;;;;;;;;18.00;48.10;;;;;;1561612;74;1950;-60
2023/11/29 09:16:05;;;;;;;;;;;18.00;48.10;;;;;;1530675;76;683;-60
2023/11/29 09:18:07;;;;;;;;;;;18.00;48.10;;;;;;1557918;75;720;-60
2023/11/29 09:20:09;;;;;;;;;;;18.00;48.10;;;;;;1541069;76;799;-60
2023/11/29 09:22:11;;;;;;;;;;;18.00;48.20;;;;;;1548827;75;1337;-60
2023/11/29 09:24:13;;;;;;;;;;;18.00;48.10;;;;;;1561193;75;784;-59
2023/11/29 09:26:15;;;;;;;;;;;18.00;48.10;;;;;;1538627;76;800;-59
2023/11/29 09:28:17;;;;;;;;;;;18.00;48.20;;;;;;1550658;75;752;-60
2023/11/29 09:30:21;;;;;;;;;;;18.00;48.10;;;;;;1552303;75;681;-58
2023/11/29 09:32:22;;;;;;;;;;;18.00;48.10;;;;;;1549238;75;1931;-59
2023/11/29 09:34:24;;;;;;;;;;;18.00;48.10;;;;;;1558898;75;781;-58
2023/11/29 09:36:26;;;;;;;;;;;18.00;48.10;;;;;;1560996;75;1355;-58
2023/11/29 09:38:28;;;;;;;;;;;17.90;48.10;;;;;;1532463;76;695;-59
2023/11/29 09:40:30;;;;;;;;;;;18.00;48.20;;;;;;1553311;75;700;-60
2023/11/29 09:42:32;;;;;;;;;;;17.90;48.20;;;;;;1537554;76;1168;-60
2023/11/29 09:44:36;;;;;;;;;;;18.00;48.20;;;;;;1549625;75;713;-57
2023/11/29 09:46:38;;;;;;;;;;;18.00;48.10;;;;;;1552563;75;740;-59
2023/11/29 09:48:40;;;;;;;;;;;18.00;48.10;;;;;;1562362;75;697;-59
2023/11/29 09:50:41;;;;;;;;;;;18.00;48.10;;;;;;1558316;75;1493;-60
2023/11/29 09:52:44;;;;;;;;;;;18.00;48.20;;;;;;1554947;75;1943;-59
2023/11/29 09:54:46;;;;;;;;;;;18.00;48.10;;;;;;1531165;76;630;-60
2023/11/29 09:56:47;;;;;;;;;;;17.90;48.30;;;;;;1564893;75;741;-59
2023/11/29 09:58:49;;;;;;;;;;;17.90;48.10;;;;;;1565017;75;744;-59
2023/11/29 10:00:51;;;;;;;;;;;18.00;48.10;;;;;;1552140;75;710;-61
2023/11/29 10:02:53;;;;;;;;;;;18.00;48.10;;;;;;1554234;75;1090;-59
2023/11/29 10:04:55;;;;;;;;;;;17.90;48.20;;;;;;1557045;75;1603;-60
2023/11/29 10:06:58;;;;;;;;;;;17.90;48.10;;;;;;1548078;75;740;-59
2023/11/29 10:09:04;;;;;;;;;;;18.00;48.10;;;;;;1564355;75;695;-59
2023/11/29 10:11:05;;;;;;;;;;;17.90;48.20;;;;;;1541636;75;1556;-59
2023/11/29 10:13:08;;;;;;;;;;;17.90;48.20;;;;;;1537135;75;1964;-59
2023/11/29 10:15:10;;;;;;;;;;;18.00;48.20;;;;;;1560106;75;699;-59
2023/11/29 10:17:16;;;;;;;;;;;17.90;48.20;;;;;;1560730;75;1514;-60
2023/11/29 10:19:18;;;;;;;;;;;17.90;48.20;;;;;;1548107;75;760;-61
2023/11/29 10:21:20;;;;;;;;;;;17.90;48.10;;;;;;1557805;75;730;-59
2023/11/29 10:23:24;;;;;;;;;;;18.00;48.20;;;;;;1533002;76;1117;-59
2023/11/29 10:25:26;;;;;;;;;;;17.90;48.20;;;;;;1553948;75;1720;-59
2023/11/29 10:27:27;;;;;;;;;;;18.00;48.20;;;;;;1532799;76;604;-58
2023/11/29 10:29:29;;;;;;;;;;;18.00;48.20;;;;;;1556119;75;679;-59
2023/11/29 10:31:31;;;;;;;;;;;17.90;48.10;;;;;;1557698;75;1325;-58
2023/11/29 10:33:33;;;;;;;;;;;17.90;48.20;;;;;;1532408;76;1944;-59
2023/11/29 10:35:35;;;;;;;;;;;17.90;48.20;;;;;;1550427;75;701;-59
2023/11/29 10:37:38;;;;;;;;;;;17.90;48.10;;;;;;1538182;76;791;-59
2023/11/29 10:39:40;;;;;;;;;;;18.00;48.20;;;;;;1553192;75;688;-59
2023/11/29 10:41:57;;;;;;;;;;;18.00;48.20;;;;;;1555402;75;774;-60
2023/11/29 10:44:00;;;;;;;;;;;18.00;48.20;;;;;;1556468;75;1123;-60
2023/11/29 10:46:10;;;;;;;;;;;17.90;48.30;;;;;;1533009;76;1514;-60
2023/11/29 10:48:13;;;;;;;;;;;18.00;48.30;;;;;;1555493;75;1655;-60
2023/11/29 10:50:15;;;;;;;;;;;18.00;48.30;;;;;;1554136;75;668;-60
2023/11/29 10:52:17;;;;;;;;;;;18.00;48.20;;;;;;1537081;76;1162;-60
2023/11/29 10:54:19;;;;;;;;;;;18.00;48.20;;;;;;1556695;75;1909;-59
2023/11/29 10:56:21;;;;;;;;;;;18.00;48.20;;;;;;1532912;76;744;-61
2023/11/29 10:58:28;;;;;;;;;;;18.10;48.40;;;;;;1560549;75;701;-59
2023/11/29 11:00:29;;;;;;;;;;;18.10;48.40;;;;;;1556079;75;1560;-60
2023/11/29 11:02:31;;;;;;;;;;;18.00;48.20;;;;;;1549532;75;1141;-60
2023/11/29 11:04:35;;;;;;;;;;;18.00;48.20;;;;;;1530934;76;800;-60
2023/11/29 11:06:40;;;;;;;;;;;18.10;48.40;;;;;;1555825;75;1895;-59
2023/11/29 11:08:42;;;;;;;;;;;18.00;48.30;;;;;;1549366;75;727;-60
2023/11/29 11:10:44;;;;;;;;;;;18.10;48.40;;;;;;1536291;76;717;-60
2023/11/29 11:12:46;;;;;;;;;;;18.10;48.40;;;;;;1562323;74;1923;-60
2023/11/29 11:14:54;;;;;;;;;;;18.10;48.40;;;;;;1553743;75;1621;-60
2023/11/29 11:17:13;;;;;;;;;;;18.10;48.40;;;;;;1561875;75;698;-60
2023/11/29 11:19:12;;;;;;;;;;;18.10;48.30;;;;;;1558970;75;1621;-60
2023/11/29 11:21:21;;;;;;;;;;;18.10;48.30;;;;;;1559355;75;735;-61
2023/11/29 11:23:22;;;;;;;;;;;18.10;48.30;;;;;;1533193;76;1540;-61
2023/11/29 11:25:24;;;;;;;;;;;18.10;48.30;;;;;;1558547;75;702;-60
2023/11/29 11:27:31;;;;;;;;;;;18.10;48.30;;;;;;1532583;76;1579;-60
2023/11/29 11:29:32;;;;;;;;;;;18.10;48.20;;;;;;1551849;75;682;-60
2023/11/29 11:31:34;;;;;;;;;;;18.10;48.20;;;;;;1531128;76;794;-59
2023/11/29 11:33:53;;;;;;;;;;;18.10;48.30;;;;;;1535480;75;1963;-57
2023/11/29 11:35:56;;;;;;;;;;;18.10;48.20;;;;;;1559727;75;758;-60
2023/11/29 11:37:59;;;;;;;;;;;18.10;48.20;;;;;;1545870;75;1952;-59
2023/11/29 11:40:02;;;;;;;;;;;18.10;48.20;;;;;;1534560;76;733;-59
2023/11/29 11:42:04;;;;;;;;;;;18.10;48.20;;;;;;1555802;75;1291;-59
2023/11/29 11:44:07;;;;;;;;;;;18.20;48.20;;;;;;1531052;76;1177;-59
2023/11/29 11:46:09;;;;;;;;;;;18.10;48.20;;;;;;1566391;75;723;-57
2023/11/29 11:48:11;;;;;;;;;;;18.10;48.20;;;;;;1534908;76;802;-59
2023/11/29 11:50:14;;;;;;;;;;;18.10;48.10;;;;;;1555766;75;717;-60
2023/11/29 11:52:15;;;;;;;;;;;18.10;48.10;;;;;;1534525;76;1116;-60
2023/11/29 11:54:17;;;;;;;;;;;18.10;48.10;;;;;;1569021;75;1939;-61
2023/11/29 11:56:19;;;;;;;;;;;18.10;48.10;;;;;;1573188;75;1250;-61
2023/11/29 11:58:21;;;;;;;;;;;18.00;48.10;;;;;;1563742;75;733;-60
2023/11/29 12:00:23;;;;;;;;;;;18.10;48.10;;;;;;1572804;75;687;-61
2023/11/29 12:02:26;;;;;;;;;;;18.10;48.10;;;;;;1571440;75;1120;-59
2023/11/29 12:04:27;;;;;;;;;;;18.10;48.10;;;;;;1570274;75;719;-60
2023/11/29 12:06:29;;;;;;;;;;;18.10;48.20;;;;;;1532693;76;758;-60
2023/11/29 12:08:32;;;;;;;;;;;18.10;48.10;;;;;;1551275;75;667;-59